createdAt,value
2023-03-08T00:01:35.493Z,99900.75
2023-03-08T00:04:05.182Z,99886.69
2023-03-08T00:06:33.550Z,99891.06
2023-03-08T00:09:06.562Z,99892.03
2023-03-08T00:11:34.570Z,99885.91
2023-03-08T00:14:03.631Z,99897.34
2023-03-08T00:16:31.866Z,99889.91
2023-03-08T00:19:00.985Z,99894.81
2023-03-08T00:21:33.054Z,99896.44
2023-03-08T00:24:04.560Z,99891.09
2023-03-08T00:26:41.512Z,99894.06
2023-03-08T00:29:09.874Z,99895.97
2023-03-08T00:31:38.790Z,99897.78
2023-03-08T00:34:07.376Z,99896.81
2023-03-08T00:36:39.766Z,99903.03
2023-03-08T00:39:07.906Z,99901.22
2023-03-08T00:41:35.812Z,99905.72
2023-03-08T00:44:06.881Z,99909.22
2023-03-08T00:46:35.118Z,99903.66
2023-03-08T00:49:04.711Z,99903.34
2023-03-08T00:51:33.246Z,99908.41
2023-03-08T00:54:01.448Z,99899.44
2023-03-08T00:56:29.471Z,99903.69
2023-03-08T00:58:59.970Z,99908.66
2023-03-08T01:01:27.857Z,99908.44
2023-03-08T01:03:56.509Z,99907.69
2023-03-08T01:06:25.633Z,99909.50
2023-03-08T01:08:55.282Z,99914.84
2023-03-08T01:11:27.583Z,99910.34
2023-03-08T01:13:56.293Z,99904.28
2023-03-08T01:16:27.466Z,99915.84
2023-03-08T01:19:00.059Z,99906.78
2023-03-08T01:21:29.755Z,99903.66
2023-03-08T01:23:58.146Z,99903.91
2023-03-08T01:26:34.139Z,99902.13
2023-03-08T01:29:02.655Z,99898.81
2023-03-08T01:31:32.068Z,99905.44
2023-03-08T01:34:01.287Z,99909.25
2023-03-08T01:36:29.774Z,99907.00
2023-03-08T01:39:01.870Z,99912.31
2023-03-08T01:41:32.091Z,99916.50
2023-03-08T01:44:04.411Z,99915.91
2023-03-08T01:46:36.868Z,99909.25
2023-03-08T01:49:08.984Z,99914.88
2023-03-08T01:52:03.085Z,99906.69
2023-03-08T01:54:40.595Z,99910.06
2023-03-08T01:57:24.841Z,99905.88
2023-03-08T02:00:00.401Z,99903.22
2023-03-08T02:02:35.115Z,99896.00
2023-03-08T02:05:05.415Z,99892.94
2023-03-08T02:07:35.024Z,99865.72
2023-03-08T02:10:03.742Z,99869.53
2023-03-08T02:13:00.763Z,99859.72
2023-03-08T02:15:30.547Z,99855.91
2023-03-08T02:17:59.425Z,99861.22
2023-03-08T02:20:31.576Z,99866.28
2023-03-08T02:23:14.291Z,99858.44
2023-03-08T02:25:50.302Z,99868.50
2023-03-08T02:28:21.835Z,99851.72
2023-03-08T02:30:50.885Z,99862.31
2023-03-08T02:33:20.780Z,99865.06
2023-03-08T02:35:48.973Z,99856.34
2023-03-08T02:38:19.833Z,99864.50
2023-03-08T02:40:57.506Z,99851.47
2023-03-08T02:43:25.772Z,99858.13
2023-03-08T02:45:57.098Z,99864.84
2023-03-08T02:48:25.140Z,99864.56
2023-03-08T02:50:53.272Z,99876.63
2023-03-08T02:53:24.070Z,99874.16
2023-03-08T02:55:53.101Z,99879.81
2023-03-08T02:58:21.032Z,99878.66
2023-03-08T03:00:49.293Z,99886.56
2023-03-08T03:03:20.112Z,99877.59
2023-03-08T03:05:47.943Z,99886.03
2023-03-08T03:08:16.945Z,99885.72
2023-03-08T03:10:46.313Z,99889.47
2023-03-08T03:13:16.723Z,99898.03
2023-03-08T03:15:47.178Z,99898.66
2023-03-08T03:18:17.704Z,99904.31
2023-03-08T03:20:46.056Z,99900.88
2023-03-08T03:23:19.408Z,99891.28
2023-03-08T03:25:52.074Z,99910.19
2023-03-08T03:28:21.021Z,99908.56
2023-03-08T03:30:49.790Z,99912.53
2023-03-08T03:33:20.055Z,99912.06
2023-03-08T03:35:50.845Z,99911.22
2023-03-08T03:38:19.098Z,99921.50
2023-03-08T03:40:47.141Z,99908.34
2023-03-08T03:43:15.327Z,99916.56
2023-03-08T03:45:43.706Z,99919.47
2023-03-08T03:48:12.017Z,99928.31
2023-03-08T03:50:40.032Z,99927.00
2023-03-08T03:53:08.143Z,99921.81
2023-03-08T03:55:36.760Z,99923.75
2023-03-08T03:58:10.427Z,99916.88
2023-03-08T04:01:18.376Z,99928.44
2023-03-08T04:03:46.644Z,99931.16
2023-03-08T04:10:39.576Z,99937.53
2023-03-08T04:13:07.734Z,99931.97
2023-03-08T04:15:39.412Z,99925.03
2023-03-08T04:18:09.024Z,99923.81
2023-03-08T04:20:37.182Z,99929.75
2023-03-08T04:23:25.062Z,99932.41
2023-03-08T04:25:55.104Z,99931.78
2023-03-08T04:28:26.936Z,99903.47
2023-03-08T04:30:55.734Z,99917.47
2023-03-08T04:33:24.353Z,99911.28
2023-03-08T04:35:54.163Z,99903.50
2023-03-08T04:38:23.249Z,99903.84
2023-03-08T04:41:10.652Z,99908.78
2023-03-08T04:43:49.556Z,99912.97
2023-03-08T04:46:20.230Z,99914.34
2023-03-08T04:48:48.388Z,99912.41
2023-03-08T04:51:17.377Z,99908.56
2023-03-08T04:53:45.757Z,99913.38
2023-03-08T04:56:15.468Z,99912.66
2023-03-08T04:58:44.276Z,99904.19
2023-03-08T05:01:25.456Z,99899.19
2023-03-08T05:03:54.290Z,99904.84
2023-03-08T05:06:25.815Z,99900.38
2023-03-08T05:08:55.408Z,99901.88
2023-03-08T05:11:26.243Z,99908.81
2023-03-08T05:13:55.801Z,99912.13
2023-03-08T05:16:24.635Z,99904.97
2023-03-08T05:18:52.746Z,99919.72
2023-03-08T05:21:22.155Z,99921.75
2023-03-08T05:23:50.253Z,99926.56
2023-03-08T05:26:21.847Z,99922.50
2023-03-08T05:28:50.158Z,99922.28
2023-03-08T05:31:20.815Z,99922.28
2023-03-08T05:33:51.341Z,99907.41
2023-03-08T05:36:20.324Z,99918.88
2023-03-08T05:38:48.569Z,99918.63
2023-03-08T05:41:17.188Z,99927.41
2023-03-08T05:43:46.613Z,99928.38
2023-03-08T05:46:16.922Z,99936.19
2023-03-08T05:48:45.124Z,99926.75
2023-03-08T05:51:16.597Z,99914.47
2023-03-08T05:53:45.259Z,99920.84
2023-03-08T05:56:17.560Z,99920.72
2023-03-08T05:58:48.450Z,99931.38
2023-03-08T06:01:24.298Z,99944.13
2023-03-08T06:03:58.339Z,99963.19
2023-03-08T06:06:27.389Z,99963.19
2023-03-08T06:08:56.832Z,99941.13
2023-03-08T06:11:26.320Z,99928.78
2023-03-08T06:13:54.783Z,99918.16
2023-03-08T06:16:22.679Z,99922.06
2023-03-08T06:18:50.678Z,99919.47
2023-03-08T06:21:21.486Z,99904.44
2023-03-08T06:23:50.378Z,99899.69
2023-03-08T06:26:19.701Z,99895.34
2023-03-08T06:28:47.894Z,99893.25
2023-03-08T06:31:21.196Z,99892.44
2023-03-08T06:33:49.972Z,99885.16
2023-03-08T06:36:21.011Z,99881.75
2023-03-08T06:38:50.065Z,99872.03
2023-03-08T06:41:20.177Z,99871.16
2023-03-08T06:43:51.504Z,99860.53
2023-03-08T06:46:20.590Z,99856.13
2023-03-08T06:48:49.602Z,99853.78
2023-03-08T06:51:18.625Z,99858.44
2023-03-08T06:53:47.313Z,99865.25
2023-03-08T06:56:17.231Z,99861.00
2023-03-08T06:58:45.105Z,99857.28
2023-03-08T07:01:13.509Z,99866.88
2023-03-08T07:03:42.021Z,99863.31
2023-03-08T07:06:10.898Z,99860.28
2023-03-08T07:08:42.364Z,99857.88
2023-03-08T07:11:10.901Z,99851.94
2023-03-08T07:13:40.257Z,99855.91
2023-03-08T07:16:12.882Z,99856.19
2023-03-08T07:18:41.858Z,99850.72
2023-03-08T07:21:13.161Z,99839.47
2023-03-08T07:23:41.961Z,99830.94
2023-03-08T07:26:11.011Z,99837.00
2023-03-08T07:28:43.949Z,99826.97
2023-03-08T07:31:13.425Z,99835.56
2023-03-08T07:33:42.896Z,99826.72
2023-03-08T07:36:12.794Z,99828.81
2023-03-08T07:38:41.460Z,99829.22
2023-03-08T07:41:09.705Z,99824.72
2023-03-08T07:43:39.474Z,99816.75
2023-03-08T07:46:07.281Z,99825.88
2023-03-08T07:48:36.168Z,99826.03
2023-03-08T07:51:09.909Z,99816.91
2023-03-08T07:53:40.298Z,99826.13
2023-03-08T07:56:08.541Z,99818.44
2023-03-08T07:58:42.231Z,99818.31
2023-03-08T08:01:17.903Z,99821.19
2023-03-08T08:03:46.162Z,99820.50
2023-03-08T08:06:14.896Z,99803.59
2023-03-08T08:08:43.536Z,99798.16
2023-03-08T08:11:13.800Z,99807.91
2023-03-08T08:13:44.553Z,99807.25
2023-03-08T08:16:15.678Z,99799.69
2023-03-08T08:18:44.598Z,99806.97
2023-03-08T08:21:15.437Z,99814.56
2023-03-08T08:23:45.471Z,99805.44
2023-03-08T08:26:19.623Z,99808.25
2023-03-08T08:28:52.564Z,99805.31
2023-03-08T08:31:31.311Z,99806.28
2023-03-08T08:34:02.769Z,99792.00
2023-03-08T08:36:33.428Z,99797.97
2023-03-08T08:39:05.180Z,99811.59
2023-03-08T08:41:33.857Z,99813.69
2023-03-08T08:44:04.964Z,99812.19
2023-03-08T08:46:37.757Z,99806.38
2023-03-08T08:49:06.457Z,99800.16
2023-03-08T08:51:35.475Z,99802.41
2023-03-08T08:54:04.182Z,99788.06
2023-03-08T08:56:35.279Z,99779.59
2023-03-08T08:59:03.978Z,99765.91
2023-03-08T09:01:34.680Z,99772.34
2023-03-08T09:04:20.193Z,99771.72
2023-03-08T09:06:48.255Z,99776.56
2023-03-08T09:09:17.846Z,99772.25
2023-03-08T09:11:55.047Z,99767.16
2023-03-08T09:14:24.844Z,99765.09
2023-03-08T09:16:53.323Z,99764.91
2023-03-08T09:19:21.389Z,99764.25
2023-03-08T09:21:50.002Z,99762.06
2023-03-08T09:24:18.114Z,99754.88
2023-03-08T09:26:49.768Z,99766.28
2023-03-08T09:29:18.861Z,99764.66
2023-03-08T09:31:46.947Z,99766.81
2023-03-08T09:34:16.781Z,99775.13
2023-03-08T09:36:46.958Z,99767.81
2023-03-08T09:39:21.244Z,99765.69
2023-03-08T09:41:55.094Z,99760.34
2023-03-08T09:44:49.841Z,99753.38
2023-03-08T09:47:29.739Z,99738.69
2023-03-08T09:50:16.530Z,99740.81
2023-03-08T09:53:04.125Z,99740.63
2023-03-08T09:55:37.057Z,99736.88
2023-03-08T09:58:15.153Z,99731.13
2023-03-08T10:00:44.697Z,99728.81
2023-03-08T10:03:12.839Z,99706.34
2023-03-08T10:05:47.705Z,99713.31
2023-03-08T10:08:26.244Z,99714.69
2023-03-08T10:11:07.876Z,99710.28
2023-03-08T10:13:39.628Z,99701.59
2023-03-08T10:16:17.230Z,99699.84
2023-03-08T10:19:09.463Z,99697.84
2023-03-08T10:21:39.629Z,99695.16
2023-03-08T10:24:10.257Z,99691.41
2023-03-08T10:26:38.772Z,99689.69
2023-03-08T10:29:06.912Z,99684.03
2023-03-08T10:31:35.017Z,99680.53
2023-03-08T10:34:15.954Z,99676.69
2023-03-08T10:36:57.899Z,99675.63
2023-03-08T10:39:25.778Z,99677.69
2023-03-08T10:41:57.795Z,99677.81
2023-03-08T10:44:43.305Z,99667.53
2023-03-08T10:47:31.268Z,99662.03
2023-03-08T10:50:21.596Z,99660.56
2023-03-08T10:52:51.641Z,99661.06
2023-03-08T10:55:24.870Z,99652.06
2023-03-08T10:58:02.301Z,99650.31
2023-03-08T11:00:43.605Z,99652.59
2023-03-08T11:03:22.057Z,99644.91
2023-03-08T11:05:57.875Z,99652.38
2023-03-08T11:08:37.830Z,99655.72
2023-03-08T11:11:14.155Z,99646.53
2023-03-08T11:13:47.928Z,99659.16
2023-03-08T11:16:40.328Z,99652.78
2023-03-08T11:19:29.541Z,99648.44
2023-03-08T11:22:36.090Z,99645.44
2023-03-08T11:25:10.001Z,99640.50
2023-03-08T11:27:58.090Z,99646.31
2023-03-08T11:30:32.264Z,99658.06
2023-03-08T11:33:17.125Z,99659.16
2023-03-08T11:35:49.105Z,99666.00
2023-03-08T11:38:26.218Z,99663.63
2023-03-08T11:41:09.431Z,99655.59
2023-03-08T11:43:56.316Z,99656.00
2023-03-08T11:46:31.926Z,99650.41
2023-03-08T11:49:15.859Z,99653.59
2023-03-08T11:52:28.936Z,99655.78
2023-03-08T11:55:25.330Z,99651.72
2023-03-08T11:57:58.920Z,99653.72
2023-03-08T12:00:44.091Z,99651.97
2023-03-08T12:03:20.904Z,99646.16
2023-03-08T12:05:56.170Z,99650.53
2023-03-08T12:08:29.879Z,99635.53
2023-03-08T12:11:03.682Z,99630.72
2023-03-08T12:13:39.650Z,99643.06
2023-03-08T12:16:26.124Z,99639.72
2023-03-08T12:19:07.058Z,99646.03
2023-03-08T12:22:02.368Z,99630.28
2023-03-08T12:24:52.974Z,99626.19
2023-03-08T12:27:39.915Z,99638.84
2023-03-08T12:30:10.533Z,99627.22
2023-03-08T12:32:41.039Z,99627.03
2023-03-08T12:35:34.212Z,99621.81
2023-03-08T12:38:04.704Z,99636.41
2023-03-08T12:40:38.884Z,99632.47
2023-03-08T12:43:12.010Z,99622.75
2023-03-08T12:45:44.966Z,99642.75
2023-03-08T12:48:20.657Z,99642.09
2023-03-08T12:51:12.149Z,99638.00
2023-03-08T12:53:45.613Z,99630.56
2023-03-08T12:56:18.075Z,99635.13
2023-03-08T12:58:53.247Z,99630.53
2023-03-08T13:01:33.890Z,99644.19
2023-03-08T13:04:06.686Z,99633.19
2023-03-08T13:06:53.910Z,99641.06
2023-03-08T13:09:28.355Z,99639.88
2023-03-08T13:12:16.618Z,99632.78
2023-03-08T13:15:03.604Z,99635.88
2023-03-08T13:17:33.152Z,99626.19
2023-03-08T13:20:11.710Z,99633.84
2023-03-08T13:23:06.509Z,99631.13
2023-03-08T13:25:43.522Z,99631.31
2023-03-08T13:28:18.395Z,99638.44
2023-03-08T13:30:53.138Z,99629.94
2023-03-08T13:33:28.405Z,99624.03
2023-03-08T13:35:59.937Z,99629.59
2023-03-08T13:38:31.134Z,99621.50
2023-03-08T13:41:00.764Z,99627.03
2023-03-08T13:43:34.066Z,99630.16
2023-03-08T13:46:06.986Z,99613.94
2023-03-08T13:48:38.229Z,99620.09
2023-03-08T13:51:06.726Z,99618.09
2023-03-08T13:53:37.076Z,99622.16
2023-03-08T13:56:06.904Z,99618.94
2023-03-08T13:58:40.444Z,99619.47
2023-03-08T14:01:14.243Z,99614.22
2023-03-08T14:03:44.102Z,99619.47
2023-03-08T14:06:38.383Z,99618.97
2023-03-08T14:09:07.624Z,99620.69
2023-03-08T14:11:38.524Z,99608.28
2023-03-08T14:14:18.403Z,99610.84
2023-03-08T14:16:47.253Z,99616.06
2023-03-08T14:19:34.778Z,99617.09
2023-03-08T14:22:11.516Z,99614.50
2023-03-08T14:24:41.589Z,99610.28
2023-03-08T14:27:16.349Z,99619.22
2023-03-08T14:29:46.303Z,99610.25
2023-03-08T14:32:14.449Z,99613.63
2023-03-08T14:34:48.637Z,99608.19
2023-03-08T14:37:30.650Z,99615.25
2023-03-08T14:40:26.751Z,99610.13
2023-03-08T14:43:07.174Z,99613.31
2023-03-08T14:45:40.869Z,99608.16
2023-03-08T14:48:17.946Z,99612.69
2023-03-08T14:51:05.018Z,99619.03
2023-03-08T14:53:39.829Z,99616.28
2023-03-08T14:56:17.594Z,99609.00
2023-03-08T14:58:54.266Z,99608.78
2023-03-08T15:01:33.250Z,99606.19
2023-03-08T15:04:02.978Z,99608.66
2023-03-08T15:06:34.633Z,99605.66
2023-03-08T15:09:04.173Z,99607.28
2023-03-08T15:11:33.221Z,99612.78
2023-03-08T15:14:02.097Z,99606.31
2023-03-08T15:16:31.511Z,99607.09
2023-03-08T15:18:59.649Z,99610.44
2023-03-08T15:21:29.920Z,99610.34
2023-03-08T15:24:01.567Z,99608.91
2023-03-08T15:26:31.966Z,99602.00
2023-03-08T15:29:05.346Z,99602.94
2023-03-08T15:31:33.724Z,99610.78
2023-03-08T15:34:01.945Z,99612.69
2023-03-08T15:36:34.958Z,99623.56
2023-03-08T15:39:04.952Z,99618.06
2023-03-08T15:41:35.302Z,99613.88
2023-03-08T15:44:03.959Z,99618.78
2023-03-08T15:46:32.582Z,99619.69
2023-03-08T15:49:01.173Z,99623.50
2023-03-08T15:51:32.508Z,99622.25
2023-03-08T15:54:02.575Z,99617.44
2023-03-08T15:56:30.739Z,99625.28
2023-03-08T15:59:00.180Z,99627.81
2023-03-08T16:01:30.359Z,99622.03
2023-03-08T16:03:58.291Z,99625.00
2023-03-08T16:06:27.379Z,99624.47
2023-03-08T16:08:55.379Z,99631.28
2023-03-08T16:11:23.769Z,99624.22
2023-03-08T16:13:53.593Z,99629.34
2023-03-08T16:16:24.477Z,99632.00
2023-03-08T16:18:56.380Z,99630.59
2023-03-08T16:21:24.960Z,99628.78
2023-03-08T16:23:53.099Z,99623.50
2023-03-08T16:26:22.280Z,99639.25
2023-03-08T16:28:50.713Z,99637.28
2023-03-08T16:31:21.247Z,99641.25
2023-03-08T16:33:49.728Z,99643.81
2023-03-08T16:36:17.857Z,99647.91
2023-03-08T16:38:47.278Z,99643.22
2023-03-08T16:41:16.193Z,99641.97
2023-03-08T16:43:51.623Z,99642.38
2023-03-08T16:46:22.743Z,99642.66
2023-03-08T16:48:54.130Z,99642.66
2023-03-08T16:51:25.298Z,99632.47
2023-03-08T16:53:53.783Z,99644.66
2023-03-08T16:56:28.051Z,99641.38
2023-03-08T16:58:57.872Z,99647.91
2023-03-08T17:01:27.314Z,99656.13
2023-03-08T17:03:59.270Z,99662.50
2023-03-08T17:06:29.794Z,99668.72
2023-03-08T17:08:59.375Z,99663.34
2023-03-08T17:11:30.424Z,99666.34
2023-03-08T17:14:01.140Z,99668.88
2023-03-08T17:16:35.922Z,99667.75
2023-03-08T17:19:06.552Z,99663.78
2023-03-08T17:21:39.169Z,99653.56
2023-03-08T17:24:14.234Z,99660.09
2023-03-08T17:26:46.648Z,99666.47
2023-03-08T17:29:20.729Z,99658.53
2023-03-08T17:31:51.993Z,99660.94
2023-03-08T17:34:23.440Z,99668.03
2023-03-08T17:36:52.246Z,99667.75
2023-03-08T17:39:20.828Z,99660.66
2023-03-08T17:41:48.698Z,99662.91
2023-03-08T17:44:16.860Z,99673.41
2023-03-08T17:46:44.928Z,99675.38
2023-03-08T17:49:14.223Z,99665.03
2023-03-08T17:51:42.876Z,99669.16
2023-03-08T17:54:12.420Z,99673.97
2023-03-08T17:56:43.943Z,99664.34
2023-03-08T17:59:17.674Z,99671.72
2023-03-08T18:01:45.897Z,99667.75
2023-03-08T18:04:14.128Z,99668.19
2023-03-08T18:06:44.067Z,99669.72
2023-03-08T18:09:16.362Z,99661.22
2023-03-08T18:11:48.611Z,99660.06
2023-03-08T18:14:16.771Z,99673.41
2023-03-08T18:16:45.400Z,99666.03
2023-03-08T18:19:16.389Z,99672.13
2023-03-08T18:21:46.776Z,99672.97
2023-03-08T18:24:15.239Z,99672.25
2023-03-08T18:26:45.065Z,99679.91
2023-03-08T18:29:13.382Z,99673.25
2023-03-08T18:31:42.316Z,99683.16
2023-03-08T18:34:11.483Z,99689.53
2023-03-08T18:36:39.383Z,99678.19
2023-03-08T18:39:09.172Z,99685.13
2023-03-08T18:41:37.183Z,99681.28
2023-03-08T18:44:12.702Z,99686.66
2023-03-08T18:46:41.145Z,99682.44
2023-03-08T18:49:13.613Z,99694.47
2023-03-08T18:51:43.138Z,99690.06
2023-03-08T18:54:21.035Z,99696.56
2023-03-08T18:56:51.655Z,99696.72
2023-03-08T18:59:19.871Z,99693.56
2023-03-08T19:01:50.386Z,99681.69
2023-03-08T19:04:19.030Z,99688.03
2023-03-08T19:06:47.618Z,99690.16
2023-03-08T19:09:18.196Z,99691.84
2023-03-08T19:11:48.341Z,99698.22
2023-03-08T19:14:18.032Z,99698.06
2023-03-08T19:16:47.000Z,99700.03
2023-03-08T19:19:16.945Z,99692.97
2023-03-08T19:21:49.034Z,99699.78
2023-03-08T19:24:19.372Z,99695.53
2023-03-08T19:26:50.688Z,99696.78
2023-03-08T19:29:27.123Z,99698.34
2023-03-08T19:32:03.170Z,99693.25
2023-03-08T19:34:33.682Z,99692.13
2023-03-08T19:37:02.913Z,99690.84
2023-03-08T19:39:34.397Z,99687.16
2023-03-08T19:42:11.319Z,99692.13
2023-03-08T19:44:40.215Z,99698.50
2023-03-08T19:47:10.270Z,99703.13
2023-03-08T19:49:40.372Z,99694.38
2023-03-08T19:52:08.667Z,99699.91
2023-03-08T19:54:39.490Z,99697.47
2023-03-08T19:57:11.006Z,99700.41
2023-03-08T19:59:39.639Z,99708.03
2023-03-08T20:02:09.133Z,99696.72
2023-03-08T20:04:37.056Z,99705.75
2023-03-08T20:07:05.235Z,99698.56
2023-03-08T20:09:34.139Z,99706.34
2023-03-08T20:12:06.200Z,99711.56
2023-03-08T20:14:37.021Z,99703.50
2023-03-08T20:17:05.456Z,99711.72
2023-03-08T20:19:38.052Z,99708.75
2023-03-08T20:22:07.266Z,99718.66
2023-03-08T20:24:36.153Z,99708.75
2023-03-08T20:27:05.627Z,99708.47
2023-03-08T20:29:35.109Z,99710.19
2023-03-08T20:32:03.568Z,99690.66
2023-03-08T20:34:32.995Z,99693.34
2023-03-08T20:37:00.869Z,99687.38
2023-03-08T20:39:29.477Z,99700.50
2023-03-08T20:41:59.072Z,99706.03
2023-03-08T20:44:29.116Z,99708.56
2023-03-08T20:46:57.339Z,99693.44
2023-03-08T20:49:29.030Z,99701.38
2023-03-08T20:51:58.869Z,99690.63
2023-03-08T20:54:32.856Z,99693.00
2023-03-08T20:57:01.432Z,99690.97
2023-03-08T20:59:30.190Z,99686.00
2023-03-08T21:01:58.900Z,99678.34
2023-03-08T21:04:29.650Z,99692.19
2023-03-08T21:07:02.242Z,99711.22
2023-03-08T21:09:30.710Z,99698.78
2023-03-08T21:12:00.366Z,99704.41
2023-03-08T21:14:29.353Z,99704.41
2023-03-08T21:16:58.191Z,99701.25
2023-03-08T21:19:27.470Z,99691.78
2023-03-08T21:21:55.857Z,99670.53
2023-03-08T21:24:26.030Z,99653.38
2023-03-08T21:26:54.382Z,99655.47
2023-03-08T21:29:23.025Z,99649.25
2023-03-08T21:31:52.713Z,99644.03
2023-03-08T21:34:21.626Z,99649.66
2023-03-08T21:36:50.261Z,99649.91
2023-03-08T21:39:19.324Z,99677.91
2023-03-08T21:41:48.809Z,99663.28
2023-03-08T21:44:19.651Z,99662.00
2023-03-08T21:46:49.058Z,99671.13
2023-03-08T21:49:22.073Z,99656.88
2023-03-08T21:51:50.713Z,99660.53
2023-03-08T21:54:19.445Z,99661.38
2023-03-08T21:56:48.033Z,99663.22
2023-03-08T21:59:17.277Z,99668.69
2023-03-08T22:01:48.610Z,99671.91
2023-03-08T22:04:17.770Z,99669.09
2023-03-08T22:06:46.643Z,99657.66
2023-03-08T22:09:15.887Z,99666.56
2023-03-08T22:11:44.281Z,99668.63
2023-03-08T22:14:13.061Z,99664.59
2023-03-08T22:16:41.464Z,99669.78
2023-03-08T22:19:10.919Z,99675.97
2023-03-08T22:21:39.614Z,99676.94
2023-03-08T22:24:10.828Z,99678.78
2023-03-08T22:26:44.232Z,99663.41
2023-03-08T22:29:12.330Z,99673.31
2023-03-08T22:31:40.914Z,99674.41
2023-03-08T22:34:09.990Z,99678.19
2023-03-08T22:36:38.430Z,99666.59
2023-03-08T22:39:06.751Z,99663.47
2023-03-08T22:41:34.517Z,99669.81
2023-03-08T22:44:05.226Z,99676.75
2023-03-08T22:46:35.023Z,99678.47
2023-03-08T22:49:08.063Z,99672.81
2023-03-08T22:51:36.772Z,99681.53
2023-03-08T22:54:08.313Z,99667.63
2023-03-08T22:56:37.318Z,99663.78
2023-03-08T22:59:07.731Z,99664.66
2023-03-08T23:01:37.221Z,99653.84
2023-03-08T23:04:07.302Z,99646.94
2023-03-08T23:06:36.072Z,99662.06
2023-03-08T23:09:08.360Z,99659.28
2023-03-08T23:11:39.591Z,99659.50
2023-03-08T23:14:09.254Z,99663.56
2023-03-08T23:16:44.100Z,99657.59
2023-03-08T23:19:15.066Z,99658.06
2023-03-08T23:21:44.947Z,99656.97
2023-03-08T23:24:16.298Z,99644.28
2023-03-08T23:26:46.716Z,99649.53
2023-03-08T23:29:15.561Z,99647.81
2023-03-08T23:31:46.202Z,99651.63
2023-03-08T23:34:15.422Z,99647.25
2023-03-08T23:36:43.784Z,99650.03
2023-03-08T23:39:11.823Z,99654.78
2023-03-08T23:41:41.272Z,99646.72
2023-03-08T23:44:11.445Z,99650.16
2023-03-08T23:46:48.356Z,99664.25
2023-03-08T23:49:18.202Z,99640.41
2023-03-08T23:51:46.609Z,99651.13
2023-03-08T23:54:15.167Z,99666.84
2023-03-08T23:56:43.841Z,99661.50
2023-03-08T23:59:20.628Z,99661.13
